sensor_id;sensor_type;location;lat;lon;timestamp;P1;durP1;ratioP1;P2;durP2;ratioP2
26936;SDS011;14495;48.116;11.676;2022-12-05T00:00:45;14.10;;;6.75;;
26936;SDS011;14495;48.116;11.676;2022-12-05T00:03:10;20.80;;;9.15;;
26936;SDS011;14495;48.116;11.676;2022-12-05T00:05:39;22.15;;;9.13;;
26936;SDS011;14495;48.116;11.676;2022-12-05T00:08:04;14.93;;;6.90;;
26936;SDS011;14495;48.116;11.676;2022-12-05T00:10:30;19.30;;;8.23;;
26936;SDS011;14495;48.116;11.676;2022-12-05T00:12:55;17.65;;;7.28;;
26936;SDS011;14495;48.116;11.676;2022-12-05T00:15:20;18.63;;;8.65;;
26936;SDS011;14495;48.116;11.676;2022-12-05T00:17:45;20.30;;;7.80;;
26936;SDS011;14495;48.116;11.676;2022-12-05T00:20:11;20.70;;;7.95;;
26936;SDS011;14495;48.116;11.676;2022-12-05T00:22:36;24.48;;;9.88;;
26936;SDS011;14495;48.116;11.676;2022-12-05T00:25:03;19.38;;;8.63;;
26936;SDS011;14495;48.116;11.676;2022-12-05T00:27:30;19.38;;;9.57;;
26936;SDS011;14495;48.116;11.676;2022-12-05T00:29:56;20.52;;;8.50;;
26936;SDS011;14495;48.116;11.676;2022-12-05T00:32:21;21.65;;;9.32;;
26936;SDS011;14495;48.116;11.676;2022-12-05T00:34:46;20.85;;;8.20;;
26936;SDS011;14495;48.116;11.676;2022-12-05T00:37:11;18.70;;;8.30;;
26936;SDS011;14495;48.116;11.676;2022-12-05T00:39:37;21.65;;;9.27;;
26936;SDS011;14495;48.116;11.676;2022-12-05T00:42:03;16.27;;;7.07;;
26936;SDS011;14495;48.116;11.676;2022-12-05T00:44:28;18.35;;;8.10;;
26936;SDS011;14495;48.116;11.676;2022-12-05T00:46:53;17.45;;;7.88;;
26936;SDS011;14495;48.116;11.676;2022-12-05T00:49:19;15.52;;;6.70;;
26936;SDS011;14495;48.116;11.676;2022-12-05T00:51:44;17.00;;;8.15;;
26936;SDS011;14495;48.116;11.676;2022-12-05T00:54:11;18.58;;;7.93;;
26936;SDS011;14495;48.116;11.676;2022-12-05T00:56:39;14.93;;;7.25;;
26936;SDS011;14495;48.116;11.676;2022-12-05T00:59:05;16.40;;;7.90;;
26936;SDS011;14495;48.116;11.676;2022-12-05T01:01:32;20.50;;;7.57;;
26936;SDS011;14495;48.116;11.676;2022-12-05T01:04:25;15.95;;;7.38;;
26936;SDS011;14495;48.116;11.676;2022-12-05T01:06:53;14.57;;;6.40;;
26936;SDS011;14495;48.116;11.676;2022-12-05T01:09:20;17.35;;;8.38;;
26936;SDS011;14495;48.116;11.676;2022-12-05T01:11:46;18.15;;;7.93;;
26936;SDS011;14495;48.116;11.676;2022-12-05T01:14:12;18.42;;;7.97;;
26936;SDS011;14495;48.116;11.676;2022-12-05T01:16:42;20.02;;;8.60;;
26936;SDS011;14495;48.116;11.676;2022-12-05T01:19:14;16.35;;;7.63;;
26936;SDS011;14495;48.116;11.676;2022-12-05T01:21:47;15.80;;;7.22;;
26936;SDS011;14495;48.116;11.676;2022-12-05T01:24:12;19.95;;;9.05;;
26936;SDS011;14495;48.116;11.676;2022-12-05T01:26:39;18.02;;;8.38;;
26936;SDS011;14495;48.116;11.676;2022-12-05T01:29:07;17.08;;;7.75;;
26936;SDS011;14495;48.116;11.676;2022-12-05T01:31:34;19.90;;;8.52;;
26936;SDS011;14495;48.116;11.676;2022-12-05T01:34:01;15.52;;;8.38;;
26936;SDS011;14495;48.116;11.676;2022-12-05T01:36:28;22.40;;;8.57;;
26936;SDS011;14495;48.116;11.676;2022-12-05T01:38:54;17.10;;;7.63;;
26936;SDS011;14495;48.116;11.676;2022-12-05T01:41:25;20.75;;;9.00;;
26936;SDS011;14495;48.116;11.676;2022-12-05T01:44:05;20.67;;;8.05;;
26936;SDS011;14495;48.116;11.676;2022-12-05T01:46:33;21.65;;;8.05;;
26936;SDS011;14495;48.116;11.676;2022-12-05T01:49:43;16.92;;;8.20;;
26936;SDS011;14495;48.116;11.676;2022-12-05T01:51:55;20.85;;;8.52;;
26936;SDS011;14495;48.116;11.676;2022-12-05T01:54:24;20.48;;;8.95;;
26936;SDS011;14495;48.116;11.676;2022-12-05T01:56:52;22.13;;;8.77;;
26936;SDS011;14495;48.116;11.676;2022-12-05T01:59:21;29.08;;;9.13;;
26936;SDS011;14495;48.116;11.676;2022-12-05T02:01:48;22.30;;;8.55;;
26936;SDS011;14495;48.116;11.676;2022-12-05T02:04:14;23.33;;;9.18;;
26936;SDS011;14495;48.116;11.676;2022-12-05T02:06:40;17.35;;;7.68;;
26936;SDS011;14495;48.116;11.676;2022-12-05T02:09:05;20.90;;;9.40;;
26936;SDS011;14495;48.116;11.676;2022-12-05T02:11:31;20.67;;;8.02;;
26936;SDS011;14495;48.116;11.676;2022-12-05T02:25:17;23.10;;;8.75;;
26936;SDS011;14495;48.116;11.676;2022-12-05T02:31:18;21.25;;;9.15;;
26936;SDS011;14495;48.116;11.676;2022-12-05T02:44:03;20.27;;;8.93;;
26936;SDS011;14495;48.116;11.676;2022-12-05T02:46:32;26.88;;;10.40;;
26936;SDS011;14495;48.116;11.676;2022-12-05T02:49:03;18.80;;;8.98;;
26936;SDS011;14495;48.116;11.676;2022-12-05T02:51:33;21.80;;;9.17;;
26936;SDS011;14495;48.116;11.676;2022-12-05T02:54:04;23.67;;;8.98;;
26936;SDS011;14495;48.116;11.676;2022-12-05T02:56:34;24.30;;;10.30;;
26936;SDS011;14495;48.116;11.676;2022-12-05T02:59:00;21.65;;;9.65;;
26936;SDS011;14495;48.116;11.676;2022-12-05T03:01:26;21.92;;;9.88;;
26936;SDS011;14495;48.116;11.676;2022-12-05T03:03:55;22.25;;;10.10;;
26936;SDS011;14495;48.116;11.676;2022-12-05T03:08:56;22.08;;;9.63;;
26936;SDS011;14495;48.116;11.676;2022-12-05T03:11:27;17.10;;;7.90;;
26936;SDS011;14495;48.116;11.676;2022-12-05T03:14:00;22.45;;;9.40;;
26936;SDS011;14495;48.116;11.676;2022-12-05T03:16:38;25.45;;;10.25;;
26936;SDS011;14495;48.116;11.676;2022-12-05T03:19:11;23.95;;;8.57;;
26936;SDS011;14495;48.116;11.676;2022-12-05T03:21:46;20.83;;;8.07;;
26936;SDS011;14495;48.116;11.676;2022-12-05T03:24:17;29.08;;;10.13;;
26936;SDS011;14495;48.116;11.676;2022-12-05T03:27:18;17.98;;;8.73;;
26936;SDS011;14495;48.116;11.676;2022-12-05T03:30:16;22.67;;;9.00;;
26936;SDS011;14495;48.116;11.676;2022-12-05T03:38:24;31.08;;;10.35;;
26936;SDS011;14495;48.116;11.676;2022-12-05T03:40:54;21.52;;;9.55;;
26936;SDS011;14495;48.116;11.676;2022-12-05T03:46:31;23.25;;;8.85;;
26936;SDS011;14495;48.116;11.676;2022-12-05T03:49:16;21.25;;;9.73;;
26936;SDS011;14495;48.116;11.676;2022-12-05T03:51:57;23.65;;;9.40;;
26936;SDS011;14495;48.116;11.676;2022-12-05T03:54:32;26.58;;;9.32;;
26936;SDS011;14495;48.116;11.676;2022-12-05T03:57:12;22.65;;;8.95;;
26936;SDS011;14495;48.116;11.676;2022-12-05T03:59:53;23.80;;;9.90;;
26936;SDS011;14495;48.116;11.676;2022-12-05T04:02:27;20.75;;;8.68;;
26936;SDS011;14495;48.116;11.676;2022-12-05T04:05:03;20.35;;;9.00;;
26936;SDS011;14495;48.116;11.676;2022-12-05T04:07:34;19.13;;;8.73;;
26936;SDS011;14495;48.116;11.676;2022-12-05T04:10:07;23.48;;;9.63;;
26936;SDS011;14495;48.116;11.676;2022-12-05T04:12:40;25.98;;;10.25;;
26936;SDS011;14495;48.116;11.676;2022-12-05T04:15:12;22.70;;;9.52;;
26936;SDS011;14495;48.116;11.676;2022-12-05T04:20:48;23.35;;;9.43;;
26936;SDS011;14495;48.116;11.676;2022-12-05T04:23:25;21.55;;;8.90;;
26936;SDS011;14495;48.116;11.676;2022-12-05T04:32:02;22.10;;;9.65;;
26936;SDS011;14495;48.116;11.676;2022-12-05T04:34:33;18.15;;;8.85;;
26936;SDS011;14495;48.116;11.676;2022-12-05T04:37:01;27.42;;;10.48;;
26936;SDS011;14495;48.116;11.676;2022-12-05T04:39:39;27.15;;;10.35;;
26936;SDS011;14495;48.116;11.676;2022-12-05T04:42:13;22.65;;;9.40;;
26936;SDS011;14495;48.116;11.676;2022-12-05T04:44:47;22.13;;;9.13;;
26936;SDS011;14495;48.116;11.676;2022-12-05T04:47:17;24.45;;;9.43;;
26936;SDS011;14495;48.116;11.676;2022-12-05T04:49:45;20.88;;;8.65;;
26936;SDS011;14495;48.116;11.676;2022-12-05T04:52:12;20.92;;;8.52;;
26936;SDS011;14495;48.116;11.676;2022-12-05T04:54:40;19.90;;;8.80;;
26936;SDS011;14495;48.116;11.676;2022-12-05T04:57:18;17.75;;;8.07;;
26936;SDS011;14495;48.116;11.676;2022-12-05T05:00:04;18.02;;;8.30;;
26936;SDS011;14495;48.116;11.676;2022-12-05T05:02:32;17.20;;;9.00;;
26936;SDS011;14495;48.116;11.676;2022-12-05T05:05:02;15.10;;;8.27;;
26936;SDS011;14495;48.116;11.676;2022-12-05T05:07:32;20.52;;;9.25;;
26936;SDS011;14495;48.116;11.676;2022-12-05T05:10:07;18.45;;;9.45;;
26936;SDS011;14495;48.116;11.676;2022-12-05T05:12:35;37.30;;;17.33;;
26936;SDS011;14495;48.116;11.676;2022-12-05T05:15:00;23.08;;;9.82;;
26936;SDS011;14495;48.116;11.676;2022-12-05T05:17:25;23.00;;;9.15;;
26936;SDS011;14495;48.116;11.676;2022-12-05T05:19:50;19.38;;;9.32;;
26936;SDS011;14495;48.116;11.676;2022-12-05T05:22:36;22.17;;;9.60;;
26936;SDS011;14495;48.116;11.676;2022-12-05T05:25:01;22.10;;;8.90;;
26936;SDS011;14495;48.116;11.676;2022-12-05T05:27:26;19.52;;;8.00;;
26936;SDS011;14495;48.116;11.676;2022-12-05T05:29:51;23.60;;;9.85;;
26936;SDS011;14495;48.116;11.676;2022-12-05T05:32:17;21.95;;;8.57;;
26936;SDS011;14495;48.116;11.676;2022-12-05T05:34:42;21.08;;;9.25;;
26936;SDS011;14495;48.116;11.676;2022-12-05T05:37:07;20.00;;;8.90;;
26936;SDS011;14495;48.116;11.676;2022-12-05T05:39:32;25.70;;;9.18;;
26936;SDS011;14495;48.116;11.676;2022-12-05T05:41:58;19.58;;;9.02;;
26936;SDS011;14495;48.116;11.676;2022-12-05T05:44:23;18.13;;;8.68;;
26936;SDS011;14495;48.116;11.676;2022-12-05T05:46:48;23.50;;;9.50;;
26936;SDS011;14495;48.116;11.676;2022-12-05T05:49:14;24.73;;;9.57;;
26936;SDS011;14495;48.116;11.676;2022-12-05T05:51:39;20.95;;;9.35;;
26936;SDS011;14495;48.116;11.676;2022-12-05T05:54:04;27.92;;;10.77;;
26936;SDS011;14495;48.116;11.676;2022-12-05T05:56:29;20.48;;;9.38;;
26936;SDS011;14495;48.116;11.676;2022-12-05T05:58:55;29.40;;;9.82;;
26936;SDS011;14495;48.116;11.676;2022-12-05T06:01:22;22.40;;;10.25;;
26936;SDS011;14495;48.116;11.676;2022-12-05T06:03:48;21.58;;;8.73;;
26936;SDS011;14495;48.116;11.676;2022-12-05T06:06:14;19.38;;;8.45;;
26936;SDS011;14495;48.116;11.676;2022-12-05T06:08:42;20.60;;;8.43;;
26936;SDS011;14495;48.116;11.676;2022-12-05T06:11:09;24.20;;;10.50;;
26936;SDS011;14495;48.116;11.676;2022-12-05T06:13:37;22.55;;;8.85;;
26936;SDS011;14495;48.116;11.676;2022-12-05T06:16:09;20.17;;;9.20;;
26936;SDS011;14495;48.116;11.676;2022-12-05T06:18:36;26.15;;;11.00;;
26936;SDS011;14495;48.116;11.676;2022-12-05T06:21:01;23.80;;;9.20;;
26936;SDS011;14495;48.116;11.676;2022-12-05T06:23:27;27.45;;;9.70;;
26936;SDS011;14495;48.116;11.676;2022-12-05T06:25:53;18.30;;;8.35;;
26936;SDS011;14495;48.116;11.676;2022-12-05T06:28:21;23.50;;;10.27;;
26936;SDS011;14495;48.116;11.676;2022-12-05T06:30:48;23.35;;;10.15;;
26936;SDS011;14495;48.116;11.676;2022-12-05T06:33:13;24.48;;;9.07;;
26936;SDS011;14495;48.116;11.676;2022-12-05T06:35:39;30.02;;;10.65;;
26936;SDS011;14495;48.116;11.676;2022-12-05T06:38:05;30.50;;;9.77;;
26936;SDS011;14495;48.116;11.676;2022-12-05T06:40:31;29.73;;;10.88;;
26936;SDS011;14495;48.116;11.676;2022-12-05T06:42:57;26.65;;;10.80;;
26936;SDS011;14495;48.116;11.676;2022-12-05T06:45:23;25.20;;;10.35;;
26936;SDS011;14495;48.116;11.676;2022-12-05T06:47:49;26.33;;;10.43;;
26936;SDS011;14495;48.116;11.676;2022-12-05T06:50:15;27.15;;;10.80;;
26936;SDS011;14495;48.116;11.676;2022-12-05T06:52:40;25.38;;;9.95;;
26936;SDS011;14495;48.116;11.676;2022-12-05T06:55:06;20.90;;;10.32;;
26936;SDS011;14495;48.116;11.676;2022-12-05T06:57:31;28.08;;;10.57;;
26936;SDS011;14495;48.116;11.676;2022-12-05T06:59:56;22.55;;;9.63;;
26936;SDS011;14495;48.116;11.676;2022-12-05T07:02:40;22.98;;;9.90;;
26936;SDS011;14495;48.116;11.676;2022-12-05T07:05:09;19.83;;;9.10;;
26936;SDS011;14495;48.116;11.676;2022-12-05T07:07:35;23.95;;;9.77;;
26936;SDS011;14495;48.116;11.676;2022-12-05T07:10:02;19.13;;;8.88;;
26936;SDS011;14495;48.116;11.676;2022-12-05T07:12:28;22.02;;;9.05;;
26936;SDS011;14495;48.116;11.676;2022-12-05T07:14:53;20.05;;;8.60;;
26936;SDS011;14495;48.116;11.676;2022-12-05T07:17:19;18.40;;;8.05;;
26936;SDS011;14495;48.116;11.676;2022-12-05T07:19:48;19.02;;;8.82;;
26936;SDS011;14495;48.116;11.676;2022-12-05T07:22:15;23.58;;;9.43;;
26936;SDS011;14495;48.116;11.676;2022-12-05T07:24:42;20.95;;;8.30;;
26936;SDS011;14495;48.116;11.676;2022-12-05T07:27:08;17.27;;;8.32;;
26936;SDS011;14495;48.116;11.676;2022-12-05T07:29:33;15.55;;;8.18;;
26936;SDS011;14495;48.116;11.676;2022-12-05T07:31:58;17.52;;;7.53;;
26936;SDS011;14495;48.116;11.676;2022-12-05T07:34:24;15.52;;;8.40;;
26936;SDS011;14495;48.116;11.676;2022-12-05T07:36:49;14.43;;;7.88;;
26936;SDS011;14495;48.116;11.676;2022-12-05T07:39:14;19.42;;;8.85;;
26936;SDS011;14495;48.116;11.676;2022-12-05T07:41:40;20.52;;;8.32;;
26936;SDS011;14495;48.116;11.676;2022-12-05T07:44:06;19.92;;;8.98;;
26936;SDS011;14495;48.116;11.676;2022-12-05T07:46:34;18.23;;;8.77;;
26936;SDS011;14495;48.116;11.676;2022-12-05T07:48:59;22.58;;;8.43;;
26936;SDS011;14495;48.116;11.676;2022-12-05T07:51:25;19.85;;;8.88;;
26936;SDS011;14495;48.116;11.676;2022-12-05T07:53:50;20.27;;;8.85;;
26936;SDS011;14495;48.116;11.676;2022-12-05T07:56:16;17.58;;;8.75;;
26936;SDS011;14495;48.116;11.676;2022-12-05T07:58:42;19.35;;;8.73;;
26936;SDS011;14495;48.116;11.676;2022-12-05T08:03:35;20.38;;;8.80;;
26936;SDS011;14495;48.116;11.676;2022-12-05T08:06:11;17.73;;;8.73;;
26936;SDS011;14495;48.116;11.676;2022-12-05T08:08:41;16.33;;;8.02;;
26936;SDS011;14495;48.116;11.676;2022-12-05T08:11:08;21.05;;;9.75;;
26936;SDS011;14495;48.116;11.676;2022-12-05T08:13:36;19.08;;;8.07;;
26936;SDS011;14495;48.116;11.676;2022-12-05T08:16:02;18.33;;;8.43;;
26936;SDS011;14495;48.116;11.676;2022-12-05T08:18:29;17.05;;;7.93;;
26936;SDS011;14495;48.116;11.676;2022-12-05T08:20:54;17.20;;;7.93;;
26936;SDS011;14495;48.116;11.676;2022-12-05T08:23:20;17.73;;;8.02;;
26936;SDS011;14495;48.116;11.676;2022-12-05T08:25:45;17.80;;;8.23;;
26936;SDS011;14495;48.116;11.676;2022-12-05T08:28:10;21.30;;;8.90;;
26936;SDS011;14495;48.116;11.676;2022-12-05T08:30:36;16.70;;;8.02;;
26936;SDS011;14495;48.116;11.676;2022-12-05T08:33:01;15.70;;;7.45;;
26936;SDS011;14495;48.116;11.676;2022-12-05T08:35:26;17.38;;;8.35;;
26936;SDS011;14495;48.116;11.676;2022-12-05T08:37:51;19.17;;;9.00;;
26936;SDS011;14495;48.116;11.676;2022-12-05T08:40:17;16.33;;;8.63;;
26936;SDS011;14495;48.116;11.676;2022-12-05T08:42:42;17.25;;;8.52;;
26936;SDS011;14495;48.116;11.676;2022-12-05T08:45:08;16.33;;;8.20;;
26936;SDS011;14495;48.116;11.676;2022-12-05T08:47:33;13.57;;;7.65;;
26936;SDS011;14495;48.116;11.676;2022-12-05T08:49:59;21.95;;;9.70;;
26936;SDS011;14495;48.116;11.676;2022-12-05T08:52:25;24.63;;;8.98;;
26936;SDS011;14495;48.116;11.676;2022-12-05T08:54:50;18.80;;;8.73;;
26936;SDS011;14495;48.116;11.676;2022-12-05T08:57:15;23.48;;;9.68;;
26936;SDS011;14495;48.116;11.676;2022-12-05T08:59:41;19.00;;;8.82;;
26936;SDS011;14495;48.116;11.676;2022-12-05T09:02:07;21.02;;;9.75;;
26936;SDS011;14495;48.116;11.676;2022-12-05T09:04:33;17.45;;;8.63;;
26936;SDS011;14495;48.116;11.676;2022-12-05T09:07:00;16.13;;;8.73;;
26936;SDS011;14495;48.116;11.676;2022-12-05T09:09:27;18.48;;;9.85;;
26936;SDS011;14495;48.116;11.676;2022-12-05T09:11:52;18.35;;;9.25;;
26936;SDS011;14495;48.116;11.676;2022-12-05T09:14:17;18.52;;;9.52;;
26936;SDS011;14495;48.116;11.676;2022-12-05T09:16:43;19.98;;;9.38;;
26936;SDS011;14495;48.116;11.676;2022-12-05T09:19:11;18.60;;;9.52;;
26936;SDS011;14495;48.116;11.676;2022-12-05T09:21:38;21.52;;;9.80;;
26936;SDS011;14495;48.116;11.676;2022-12-05T09:24:04;18.85;;;9.63;;
26936;SDS011;14495;48.116;11.676;2022-12-05T09:26:29;18.92;;;9.20;;
26936;SDS011;14495;48.116;11.676;2022-12-05T09:28:55;21.33;;;9.20;;
26936;SDS011;14495;48.116;11.676;2022-12-05T09:31:22;21.83;;;10.10;;
26936;SDS011;14495;48.116;11.676;2022-12-05T09:33:49;18.70;;;9.43;;
26936;SDS011;14495;48.116;11.676;2022-12-05T09:36:16;19.38;;;9.60;;
26936;SDS011;14495;48.116;11.676;2022-12-05T09:38:42;18.20;;;9.30;;
26936;SDS011;14495;48.116;11.676;2022-12-05T09:44:34;22.67;;;9.63;;
26936;SDS011;14495;48.116;11.676;2022-12-05T09:47:02;25.75;;;10.48;;
26936;SDS011;14495;48.116;11.676;2022-12-05T09:49:38;17.17;;;8.60;;
26936;SDS011;14495;48.116;11.676;2022-12-05T09:52:18;21.23;;;9.75;;
26936;SDS011;14495;48.116;11.676;2022-12-05T09:54:52;20.35;;;9.63;;
26936;SDS011;14495;48.116;11.676;2022-12-05T09:57:34;21.67;;;10.32;;
26936;SDS011;14495;48.116;11.676;2022-12-05T10:00:05;22.98;;;10.73;;
26936;SDS011;14495;48.116;11.676;2022-12-05T10:02:35;16.40;;;9.75;;
26936;SDS011;14495;48.116;11.676;2022-12-05T10:05:18;19.02;;;9.35;;
26936;SDS011;14495;48.116;11.676;2022-12-05T10:08:02;19.23;;;9.73;;
26936;SDS011;14495;48.116;11.676;2022-12-05T10:10:36;24.10;;;10.60;;
26936;SDS011;14495;48.116;11.676;2022-12-05T10:13:20;25.42;;;10.25;;
26936;SDS011;14495;48.116;11.676;2022-12-05T10:16:41;21.05;;;9.70;;
26936;SDS011;14495;48.116;11.676;2022-12-05T10:19:11;20.60;;;8.18;;
26936;SDS011;14495;48.116;11.676;2022-12-05T10:24:26;28.52;;;10.80;;
26936;SDS011;14495;48.116;11.676;2022-12-05T10:26:59;19.80;;;10.55;;
26936;SDS011;14495;48.116;11.676;2022-12-05T10:29:36;26.42;;;9.00;;
26936;SDS011;14495;48.116;11.676;2022-12-05T10:32:14;19.05;;;8.18;;
26936;SDS011;14495;48.116;11.676;2022-12-05T10:34:44;15.98;;;8.45;;
26936;SDS011;14495;48.116;11.676;2022-12-05T10:37:22;17.33;;;8.23;;
26936;SDS011;14495;48.116;11.676;2022-12-05T10:39:49;17.20;;;8.50;;
26936;SDS011;14495;48.116;11.676;2022-12-05T10:42:15;18.92;;;8.90;;
26936;SDS011;14495;48.116;11.676;2022-12-05T10:44:45;15.60;;;7.93;;
26936;SDS011;14495;48.116;11.676;2022-12-05T10:47:12;16.33;;;8.27;;
26936;SDS011;14495;48.116;11.676;2022-12-05T10:49:37;15.32;;;8.15;;
26936;SDS011;14495;48.116;11.676;2022-12-05T10:52:03;15.50;;;8.07;;
26936;SDS011;14495;48.116;11.676;2022-12-05T10:54:30;17.67;;;7.72;;
26936;SDS011;14495;48.116;11.676;2022-12-05T10:57:00;15.65;;;8.27;;
26936;SDS011;14495;48.116;11.676;2022-12-05T10:59:38;17.88;;;8.30;;
26936;SDS011;14495;48.116;11.676;2022-12-05T11:02:20;18.30;;;8.88;;
26936;SDS011;14495;48.116;11.676;2022-12-05T11:04:48;16.38;;;8.25;;
26936;SDS011;14495;48.116;11.676;2022-12-05T11:07:30;20.42;;;9.00;;
26936;SDS011;14495;48.116;11.676;2022-12-05T11:09:59;17.27;;;8.48;;
26936;SDS011;14495;48.116;11.676;2022-12-05T11:12:29;16.60;;;8.43;;
26936;SDS011;14495;48.116;11.676;2022-12-05T11:15:10;17.80;;;9.18;;
26936;SDS011;14495;48.116;11.676;2022-12-05T11:17:50;19.48;;;9.48;;
26936;SDS011;14495;48.116;11.676;2022-12-05T11:22:42;22.98;;;10.95;;
26936;SDS011;14495;48.116;11.676;2022-12-05T11:25:29;19.70;;;9.80;;
26936;SDS011;14495;48.116;11.676;2022-12-05T11:28:36;16.05;;;7.90;;
26936;SDS011;14495;48.116;11.676;2022-12-05T11:30:56;13.50;;;8.27;;
26936;SDS011;14495;48.116;11.676;2022-12-05T11:33:23;18.83;;;8.90;;
26936;SDS011;14495;48.116;11.676;2022-12-05T11:35:52;13.77;;;7.93;;
26936;SDS011;14495;48.116;11.676;2022-12-05T11:38:20;16.50;;;8.43;;
26936;SDS011;14495;48.116;11.676;2022-12-05T11:40:53;14.85;;;7.75;;
26936;SDS011;14495;48.116;11.676;2022-12-05T11:57:12;15.55;;;7.97;;
26936;SDS011;14495;48.116;11.676;2022-12-05T11:59:57;14.60;;;8.13;;
26936;SDS011;14495;48.116;11.676;2022-12-05T12:02:37;17.40;;;8.85;;
26936;SDS011;14495;48.116;11.676;2022-12-05T12:05:34;15.90;;;8.43;;
26936;SDS011;14495;48.116;11.676;2022-12-05T12:10:47;18.88;;;7.05;;
26936;SDS011;14495;48.116;11.676;2022-12-05T12:27:02;15.30;;;7.53;;
26936;SDS011;14495;48.116;11.676;2022-12-05T12:29:54;14.15;;;7.10;;
26936;SDS011;14495;48.116;11.676;2022-12-05T12:40:22;13.23;;;6.63;;
26936;SDS011;14495;48.116;11.676;2022-12-05T12:51:52;10.30;;;5.25;;
26936;SDS011;14495;48.116;11.676;2022-12-05T12:57:24;11.68;;;5.78;;
26936;SDS011;14495;48.116;11.676;2022-12-05T13:00:11;7.07;;;4.55;;
26936;SDS011;14495;48.116;11.676;2022-12-05T13:08:06;12.13;;;5.47;;
26936;SDS011;14495;48.116;11.676;2022-12-05T13:10:41;11.25;;;5.60;;
26936;SDS011;14495;48.116;11.676;2022-12-05T13:13:13;10.57;;;5.40;;
26936;SDS011;14495;48.116;11.676;2022-12-05T13:15:43;8.70;;;4.93;;
26936;SDS011;14495;48.116;11.676;2022-12-05T13:18:16;7.25;;;4.00;;
26936;SDS011;14495;48.116;11.676;2022-12-05T13:20:47;7.82;;;4.50;;
26936;SDS011;14495;48.116;11.676;2022-12-05T13:23:16;10.77;;;4.32;;
26936;SDS011;14495;48.116;11.676;2022-12-05T13:25:44;9.02;;;4.40;;
26936;SDS011;14495;48.116;11.676;2022-12-05T13:28:28;9.07;;;4.10;;
26936;SDS011;14495;48.116;11.676;2022-12-05T13:30:58;8.10;;;4.30;;
26936;SDS011;14495;48.116;11.676;2022-12-05T13:33:34;7.18;;;3.83;;
26936;SDS011;14495;48.116;11.676;2022-12-05T13:36:07;9.82;;;4.38;;
26936;SDS011;14495;48.116;11.676;2022-12-05T13:38:57;7.88;;;3.80;;
26936;SDS011;14495;48.116;11.676;2022-12-05T13:41:45;10.15;;;3.85;;
26936;SDS011;14495;48.116;11.676;2022-12-05T13:44:35;6.38;;;3.78;;
26936;SDS011;14495;48.116;11.676;2022-12-05T13:47:03;5.30;;;3.40;;
26936;SDS011;14495;48.116;11.676;2022-12-05T13:49:44;8.80;;;4.03;;
26936;SDS011;14495;48.116;11.676;2022-12-05T13:52:16;5.60;;;3.80;;
26936;SDS011;14495;48.116;11.676;2022-12-05T13:55:32;6.10;;;3.53;;
26936;SDS011;14495;48.116;11.676;2022-12-05T13:57:44;7.72;;;3.78;;
26936;SDS011;14495;48.116;11.676;2022-12-05T14:00:40;6.93;;;4.25;;
26936;SDS011;14495;48.116;11.676;2022-12-05T14:03:16;4.70;;;2.83;;
26936;SDS011;14495;48.116;11.676;2022-12-05T14:06:02;8.25;;;3.50;;
26936;SDS011;14495;48.116;11.676;2022-12-05T14:15:48;5.72;;;2.75;;
26936;SDS011;14495;48.116;11.676;2022-12-05T14:18:16;4.40;;;2.63;;
26936;SDS011;14495;48.116;11.676;2022-12-05T14:23:35;5.38;;;3.20;;
26936;SDS011;14495;48.116;11.676;2022-12-05T14:29:23;5.90;;;3.75;;
26936;SDS011;14495;48.116;11.676;2022-12-05T14:34:48;6.68;;;3.85;;
26936;SDS011;14495;48.116;11.676;2022-12-05T14:37:23;6.30;;;3.63;;
26936;SDS011;14495;48.116;11.676;2022-12-05T14:39:52;5.18;;;3.53;;
26936;SDS011;14495;48.116;11.676;2022-12-05T14:44:50;7.30;;;4.72;;
26936;SDS011;14495;48.116;11.676;2022-12-05T14:47:19;8.25;;;5.32;;
26936;SDS011;14495;48.116;11.676;2022-12-05T14:52:35;7.20;;;4.40;;
26936;SDS011;14495;48.116;11.676;2022-12-05T14:55:04;8.35;;;4.45;;
26936;SDS011;14495;48.116;11.676;2022-12-05T14:57:36;9.77;;;3.83;;
26936;SDS011;14495;48.116;11.676;2022-12-05T15:00:13;5.15;;;3.70;;
26936;SDS011;14495;48.116;11.676;2022-12-05T15:02:44;5.22;;;2.85;;
26936;SDS011;14495;48.116;11.676;2022-12-05T15:08:08;6.93;;;4.43;;
26936;SDS011;14495;48.116;11.676;2022-12-05T15:13:12;12.18;;;5.85;;
26936;SDS011;14495;48.116;11.676;2022-12-05T15:15:42;14.68;;;7.63;;
26936;SDS011;14495;48.116;11.676;2022-12-05T15:20:58;5.20;;;3.70;;
26936;SDS011;14495;48.116;11.676;2022-12-05T15:26:16;7.22;;;3.75;;
26936;SDS011;14495;48.116;11.676;2022-12-05T15:34:13;6.22;;;4.00;;
26936;SDS011;14495;48.116;11.676;2022-12-05T15:36:46;6.43;;;3.95;;
26936;SDS011;14495;48.116;11.676;2022-12-05T15:39:21;9.18;;;4.80;;
26936;SDS011;14495;48.116;11.676;2022-12-05T15:41:50;9.43;;;4.75;;
26936;SDS011;14495;48.116;11.676;2022-12-05T15:44:17;11.45;;;5.15;;
26936;SDS011;14495;48.116;11.676;2022-12-05T15:46:44;6.90;;;3.95;;
26936;SDS011;14495;48.116;11.676;2022-12-05T15:49:16;10.73;;;5.30;;
26936;SDS011;14495;48.116;11.676;2022-12-05T15:51:45;15.75;;;7.22;;
26936;SDS011;14495;48.116;11.676;2022-12-05T15:54:14;7.10;;;4.32;;
26936;SDS011;14495;48.116;11.676;2022-12-05T15:56:53;7.60;;;4.95;;
26936;SDS011;14495;48.116;11.676;2022-12-05T15:59:30;8.82;;;5.70;;
26936;SDS011;14495;48.116;11.676;2022-12-05T16:02:04;6.68;;;4.18;;
26936;SDS011;14495;48.116;11.676;2022-12-05T16:04:54;7.20;;;4.00;;
26936;SDS011;14495;48.116;11.676;2022-12-05T16:07:22;6.95;;;4.70;;
26936;SDS011;14495;48.116;11.676;2022-12-05T16:09:53;9.40;;;4.97;;
26936;SDS011;14495;48.116;11.676;2022-12-05T16:14:49;4.80;;;3.42;;
26936;SDS011;14495;48.116;11.676;2022-12-05T16:17:17;6.40;;;4.45;;
26936;SDS011;14495;48.116;11.676;2022-12-05T16:19:44;5.85;;;4.05;;
26936;SDS011;14495;48.116;11.676;2022-12-05T16:24:39;4.82;;;3.20;;
26936;SDS011;14495;48.116;11.676;2022-12-05T16:27:13;6.18;;;3.92;;
26936;SDS011;14495;48.116;11.676;2022-12-05T16:29:41;6.13;;;3.85;;
26936;SDS011;14495;48.116;11.676;2022-12-05T16:32:16;6.82;;;4.25;;
26936;SDS011;14495;48.116;11.676;2022-12-05T16:34:45;6.95;;;4.22;;
26936;SDS011;14495;48.116;11.676;2022-12-05T16:37:17;6.15;;;4.10;;
26936;SDS011;14495;48.116;11.676;2022-12-05T16:39:48;6.32;;;4.03;;
26936;SDS011;14495;48.116;11.676;2022-12-05T16:42:21;5.85;;;3.97;;
26936;SDS011;14495;48.116;11.676;2022-12-05T16:44:53;6.35;;;4.10;;
26936;SDS011;14495;48.116;11.676;2022-12-05T16:47:27;6.00;;;3.63;;
26936;SDS011;14495;48.116;11.676;2022-12-05T16:50:28;6.13;;;3.47;;
26936;SDS011;14495;48.116;11.676;2022-12-05T16:53:31;6.35;;;3.70;;
26936;SDS011;14495;48.116;11.676;2022-12-05T16:55:56;7.53;;;3.25;;
26936;SDS011;14495;48.116;11.676;2022-12-05T16:58:23;6.40;;;3.80;;
26936;SDS011;14495;48.116;11.676;2022-12-05T17:00:50;6.15;;;3.45;;
26936;SDS011;14495;48.116;11.676;2022-12-05T17:03:22;4.47;;;2.65;;
26936;SDS011;14495;48.116;11.676;2022-12-05T17:05:47;6.53;;;3.00;;
26936;SDS011;14495;48.116;11.676;2022-12-05T17:08:12;4.75;;;2.97;;
26936;SDS011;14495;48.116;11.676;2022-12-05T17:10:38;4.53;;;2.90;;
26936;SDS011;14495;48.116;11.676;2022-12-05T17:13:03;5.72;;;2.28;;
26936;SDS011;14495;48.116;11.676;2022-12-05T17:15:29;5.43;;;2.80;;
26936;SDS011;14495;48.116;11.676;2022-12-05T17:17:56;3.75;;;2.20;;